sensor_id;sensor_type;location;lat;lon;timestamp;pressure;altitude;pressure_sealevel;temperature;humidity
37904;BME280;23738;50.422;18.758;2023-07-13T00:01:37;98174.39;;;20.95;75.46
37904;BME280;23738;50.422;18.758;2023-07-13T00:04:07;98173.50;;;20.90;75.40
37904;BME280;23738;50.422;18.758;2023-07-13T00:06:36;98187.86;;;20.94;75.41
37904;BME280;23738;50.422;18.758;2023-07-13T00:09:05;98190.12;;;20.94;75.48
37904;BME280;23738;50.422;18.758;2023-07-13T00:11:35;98195.81;;;20.95;75.44
37904;BME280;23738;50.422;18.758;2023-07-13T00:14:04;98189.69;;;20.94;75.44
37904;BME280;23738;50.422;18.758;2023-07-13T00:16:35;98187.50;;;20.92;75.39
37904;BME280;23738;50.422;18.758;2023-07-13T00:19:04;98193.64;;;20.89;75.42
37904;BME280;23738;50.422;18.758;2023-07-13T00:21:34;98197.89;;;20.87;75.57
37904;BME280;23738;50.422;18.758;2023-07-13T00:24:04;98191.71;;;20.89;75.75
37904;BME280;23738;50.422;18.758;2023-07-13T00:26:34;98191.98;;;20.89;75.80
37904;BME280;23738;50.422;18.758;2023-07-13T00:29:03;98182.80;;;20.88;75.88
37904;BME280;23738;50.422;18.758;2023-07-13T00:31:36;98177.16;;;20.85;75.70
37904;BME280;23738;50.422;18.758;2023-07-13T00:34:06;98176.05;;;20.80;75.67
37904;BME280;23738;50.422;18.758;2023-07-13T00:36:35;98168.82;;;20.76;75.59
37904;BME280;23738;50.422;18.758;2023-07-13T00:39:04;98158.52;;;20.73;75.52
37904;BME280;23738;50.422;18.758;2023-07-13T00:41:34;98154.83;;;20.72;75.59
37904;BME280;23738;50.422;18.758;2023-07-13T00:44:05;98155.37;;;20.71;75.48
37904;BME280;23738;50.422;18.758;2023-07-13T00:46:35;98157.67;;;20.69;75.39
37904;BME280;23738;50.422;18.758;2023-07-13T00:49:07;98146.58;;;20.66;75.43
37904;BME280;23738;50.422;18.758;2023-07-13T00:51:39;98136.17;;;20.64;75.54
37904;BME280;23738;50.422;18.758;2023-07-13T00:54:12;98135.38;;;20.62;75.30
37904;BME280;23738;50.422;18.758;2023-07-13T00:56:44;98141.45;;;20.59;75.25
37904;BME280;23738;50.422;18.758;2023-07-13T00:59:16;98150.95;;;20.56;75.49
37904;BME280;23738;50.422;18.758;2023-07-13T01:01:47;98153.64;;;20.55;75.68
37904;BME280;23738;50.422;18.758;2023-07-13T01:04:17;98149.61;;;20.56;76.09
37904;BME280;23738;50.422;18.758;2023-07-13T01:06:47;98149.73;;;20.55;76.01
37904;BME280;23738;50.422;18.758;2023-07-13T01:09:17;98151.71;;;20.54;76.01
37904;BME280;23738;50.422;18.758;2023-07-13T01:11:47;98153.91;;;20.54;75.92
37904;BME280;23738;50.422;18.758;2023-07-13T01:14:17;98161.15;;;20.53;76.04
37904;BME280;23738;50.422;18.758;2023-07-13T01:16:49;98162.66;;;20.52;76.29
37904;BME280;23738;50.422;18.758;2023-07-13T01:19:33;98151.51;;;20.51;76.33
37904;BME280;23738;50.422;18.758;2023-07-13T01:22:07;98148.14;;;20.50;76.22
37904;BME280;23738;50.422;18.758;2023-07-13T01:24:41;98142.93;;;20.48;76.43
37904;BME280;23738;50.422;18.758;2023-07-13T01:27:14;98146.32;;;20.49;76.58
37904;BME280;23738;50.422;18.758;2023-07-13T01:29:45;98143.47;;;20.49;76.71
37904;BME280;23738;50.422;18.758;2023-07-13T01:32:17;98144.23;;;20.45;76.32
37904;BME280;23738;50.422;18.758;2023-07-13T01:34:52;98151.80;;;20.40;76.37
37904;BME280;23738;50.422;18.758;2023-07-13T01:37:23;98155.45;;;20.38;76.33
37904;BME280;23738;50.422;18.758;2023-07-13T01:39:53;98157.70;;;20.38;76.41
37904;BME280;23738;50.422;18.758;2023-07-13T01:42:22;98163.92;;;20.39;76.57
37904;BME280;23738;50.422;18.758;2023-07-13T01:44:51;98176.38;;;20.34;76.62
37904;BME280;23738;50.422;18.758;2023-07-13T01:47:21;98160.60;;;20.28;76.81
37904;BME280;23738;50.422;18.758;2023-07-13T01:49:51;98161.19;;;20.25;77.19
37904;BME280;23738;50.422;18.758;2023-07-13T01:52:20;98145.69;;;20.19;77.45
37904;BME280;23738;50.422;18.758;2023-07-13T01:54:50;98133.64;;;20.19;77.54
37904;BME280;23738;50.422;18.758;2023-07-13T01:57:19;98101.56;;;20.14;77.71
37904;BME280;23738;50.422;18.758;2023-07-13T01:59:49;98090.70;;;20.05;77.76
37904;BME280;23738;50.422;18.758;2023-07-13T02:02:18;98089.27;;;20.02;77.71
37904;BME280;23738;50.422;18.758;2023-07-13T02:04:48;98070.77;;;19.99;77.99
37904;BME280;23738;50.422;18.758;2023-07-13T02:07:17;98057.95;;;19.96;78.03
37904;BME280;23738;50.422;18.758;2023-07-13T02:09:46;98054.13;;;19.98;78.16
37904;BME280;23738;50.422;18.758;2023-07-13T02:12:16;98053.34;;;19.98;78.10
37904;BME280;23738;50.422;18.758;2023-07-13T02:14:45;98056.82;;;19.97;78.10
37904;BME280;23738;50.422;18.758;2023-07-13T02:17:14;98059.08;;;19.95;78.05
37904;BME280;23738;50.422;18.758;2023-07-13T02:19:44;98061.17;;;19.95;78.04
37904;BME280;23738;50.422;18.758;2023-07-13T02:22:14;98060.41;;;19.97;78.14
37904;BME280;23738;50.422;18.758;2023-07-13T02:24:43;98054.08;;;19.98;78.09
37904;BME280;23738;50.422;18.758;2023-07-13T02:27:12;98040.25;;;19.98;77.87
37904;BME280;23738;50.422;18.758;2023-07-13T02:29:42;98038.64;;;19.97;77.93
37904;BME280;23738;50.422;18.758;2023-07-13T02:32:11;98036.73;;;19.92;77.90
37904;BME280;23738;50.422;18.758;2023-07-13T02:34:41;98044.24;;;19.94;77.80
37904;BME280;23738;50.422;18.758;2023-07-13T02:37:11;98041.77;;;19.93;77.76
37904;BME280;23738;50.422;18.758;2023-07-13T02:39:40;98043.44;;;19.92;77.89
37904;BME280;23738;50.422;18.758;2023-07-13T02:42:09;98049.27;;;19.92;77.93
37904;BME280;23738;50.422;18.758;2023-07-13T02:44:39;98050.23;;;19.91;77.73
37904;BME280;23738;50.422;18.758;2023-07-13T02:47:09;98051.80;;;19.85;77.77
37904;BME280;23738;50.422;18.758;2023-07-13T02:49:38;98061.19;;;19.83;77.83
37904;BME280;23738;50.422;18.758;2023-07-13T02:52:08;98064.89;;;19.81;77.97
37904;BME280;23738;50.422;18.758;2023-07-13T02:54:38;98069.92;;;19.80;78.14
37904;BME280;23738;50.422;18.758;2023-07-13T02:57:08;98082.41;;;19.79;78.16
37904;BME280;23738;50.422;18.758;2023-07-13T02:59:37;98097.48;;;19.76;78.04
37904;BME280;23738;50.422;18.758;2023-07-13T03:02:07;98104.35;;;19.72;77.94
37904;BME280;23738;50.422;18.758;2023-07-13T03:04:37;98106.86;;;19.64;77.83
37904;BME280;23738;50.422;18.758;2023-07-13T03:07:08;98114.09;;;19.58;77.89
37904;BME280;23738;50.422;18.758;2023-07-13T03:09:37;98122.30;;;19.56;77.89
37904;BME280;23738;50.422;18.758;2023-07-13T03:12:08;98123.85;;;19.53;77.90
37904;BME280;23738;50.422;18.758;2023-07-13T03:14:37;98133.00;;;19.49;77.64
37904;BME280;23738;50.422;18.758;2023-07-13T03:17:07;98139.70;;;19.41;77.64
37904;BME280;23738;50.422;18.758;2023-07-13T03:19:36;98145.06;;;19.38;77.67
37904;BME280;23738;50.422;18.758;2023-07-13T03:22:06;98148.48;;;19.35;77.61
37904;BME280;23738;50.422;18.758;2023-07-13T03:24:36;98146.27;;;19.33;77.58
37904;BME280;23738;50.422;18.758;2023-07-13T03:27:07;98147.23;;;19.33;77.82
37904;BME280;23738;50.422;18.758;2023-07-13T03:29:37;98151.20;;;19.33;77.75
37904;BME280;23738;50.422;18.758;2023-07-13T03:32:08;98148.26;;;19.34;77.87
37904;BME280;23738;50.422;18.758;2023-07-13T03:34:37;98144.51;;;19.34;77.87
37904;BME280;23738;50.422;18.758;2023-07-13T03:37:07;98140.98;;;19.33;78.08
37904;BME280;23738;50.422;18.758;2023-07-13T03:39:36;98140.38;;;19.31;77.89
37904;BME280;23738;50.422;18.758;2023-07-13T03:42:07;98140.22;;;19.28;77.88
37904;BME280;23738;50.422;18.758;2023-07-13T03:44:39;98137.63;;;19.25;77.75
37904;BME280;23738;50.422;18.758;2023-07-13T03:47:09;98146.16;;;19.26;77.79
37904;BME280;23738;50.422;18.758;2023-07-13T03:49:38;98146.27;;;19.27;78.09
37904;BME280;23738;50.422;18.758;2023-07-13T03:52:09;98150.88;;;19.28;78.23
37904;BME280;23738;50.422;18.758;2023-07-13T03:54:38;98157.00;;;19.31;78.38
37904;BME280;23738;50.422;18.758;2023-07-13T03:57:10;98161.91;;;19.33;78.43
37904;BME280;23738;50.422;18.758;2023-07-13T03:59:39;98166.97;;;19.37;78.70
37904;BME280;23738;50.422;18.758;2023-07-13T04:02:09;98168.00;;;19.44;78.86
37904;BME280;23738;50.422;18.758;2023-07-13T04:04:39;98170.77;;;19.54;79.17
37904;BME280;23738;50.422;18.758;2023-07-13T04:07:09;98172.14;;;19.61;79.58
37904;BME280;23738;50.422;18.758;2023-07-13T04:09:39;98178.02;;;19.67;79.45
37904;BME280;23738;50.422;18.758;2023-07-13T04:12:09;98180.13;;;19.71;79.75
37904;BME280;23738;50.422;18.758;2023-07-13T04:14:39;98183.40;;;19.79;79.73
37904;BME280;23738;50.422;18.758;2023-07-13T04:17:08;98177.20;;;19.84;79.85
37904;BME280;23738;50.422;18.758;2023-07-13T04:19:38;98173.43;;;19.88;79.99
37904;BME280;23738;50.422;18.758;2023-07-13T04:22:08;98172.48;;;19.94;80.25
37904;BME280;23738;50.422;18.758;2023-07-13T04:24:38;98168.39;;;19.98;80.14
37904;BME280;23738;50.422;18.758;2023-07-13T04:27:07;98169.69;;;20.02;80.24
37904;BME280;23738;50.422;18.758;2023-07-13T04:29:37;98174.07;;;20.11;80.34
37904;BME280;23738;50.422;18.758;2023-07-13T04:32:07;98176.52;;;20.19;80.55
37904;BME280;23738;50.422;18.758;2023-07-13T04:34:37;98172.72;;;20.26;80.68
37904;BME280;23738;50.422;18.758;2023-07-13T04:37:07;98163.27;;;20.28;80.71
37904;BME280;23738;50.422;18.758;2023-07-13T04:39:36;98156.48;;;20.25;80.57
37904;BME280;23738;50.422;18.758;2023-07-13T04:42:07;98149.75;;;20.29;80.90
37904;BME280;23738;50.422;18.758;2023-07-13T04:44:36;98148.64;;;20.38;81.27
37904;BME280;23738;50.422;18.758;2023-07-13T04:47:07;98144.95;;;20.51;81.55
37904;BME280;23738;50.422;18.758;2023-07-13T04:49:36;98139.30;;;20.58;81.55
37904;BME280;23738;50.422;18.758;2023-07-13T04:52:07;98145.41;;;20.62;81.56
37904;BME280;23738;50.422;18.758;2023-07-13T04:54:36;98146.83;;;20.71;81.77
37904;BME280;23738;50.422;18.758;2023-07-13T04:57:07;98155.37;;;20.83;81.86
37904;BME280;23738;50.422;18.758;2023-07-13T04:59:37;98160.27;;;20.96;81.98
37904;BME280;23738;50.422;18.758;2023-07-13T05:02:06;98158.56;;;21.04;81.90
37904;BME280;23738;50.422;18.758;2023-07-13T05:04:36;98159.98;;;21.08;81.85
37904;BME280;23738;50.422;18.758;2023-07-13T05:07:06;98156.27;;;21.15;82.01
37904;BME280;23738;50.422;18.758;2023-07-13T05:09:36;98149.86;;;21.30;82.19
37904;BME280;23738;50.422;18.758;2023-07-13T05:12:07;98143.68;;;21.47;82.32
37904;BME280;23738;50.422;18.758;2023-07-13T05:14:36;98143.27;;;21.62;81.98
37904;BME280;23738;50.422;18.758;2023-07-13T05:17:06;98138.95;;;21.78;82.16
37904;BME280;23738;50.422;18.758;2023-07-13T05:19:35;98145.05;;;21.94;82.13
37904;BME280;23738;50.422;18.758;2023-07-13T05:22:05;98146.97;;;22.12;82.32
37904;BME280;23738;50.422;18.758;2023-07-13T05:24:34;98142.68;;;22.26;81.97
37904;BME280;23738;50.422;18.758;2023-07-13T05:27:05;98142.60;;;22.40;82.04
37904;BME280;23738;50.422;18.758;2023-07-13T05:29:34;98145.90;;;22.54;81.83
37904;BME280;23738;50.422;18.758;2023-07-13T05:32:05;98146.24;;;22.65;81.84
37904;BME280;23738;50.422;18.758;2023-07-13T05:34:34;98145.33;;;22.78;81.70
37904;BME280;23738;50.422;18.758;2023-07-13T05:37:04;98142.70;;;22.86;81.33
37904;BME280;23738;50.422;18.758;2023-07-13T05:39:33;98141.23;;;22.91;81.29
37904;BME280;23738;50.422;18.758;2023-07-13T05:42:03;98138.89;;;23.02;80.98
37904;BME280;23738;50.422;18.758;2023-07-13T05:44:33;98141.56;;;23.11;80.89
37904;BME280;23738;50.422;18.758;2023-07-13T05:47:02;98146.73;;;23.20;80.87
37904;BME280;23738;50.422;18.758;2023-07-13T05:49:32;98140.20;;;23.29;80.81
37904;BME280;23738;50.422;18.758;2023-07-13T05:52:01;98133.71;;;23.41;80.76
37904;BME280;23738;50.422;18.758;2023-07-13T05:54:31;98131.23;;;23.53;80.65
37904;BME280;23738;50.422;18.758;2023-07-13T05:57:00;98123.75;;;23.64;80.64
37904;BME280;23738;50.422;18.758;2023-07-13T05:59:29;98124.64;;;23.73;79.98
37904;BME280;23738;50.422;18.758;2023-07-13T06:01:59;98117.49;;;23.78;79.83
37904;BME280;23738;50.422;18.758;2023-07-13T06:04:28;98115.48;;;23.85;79.86
37904;BME280;23738;50.422;18.758;2023-07-13T06:07:00;98117.46;;;23.93;79.40
37904;BME280;23738;50.422;18.758;2023-07-13T06:09:29;98115.33;;;23.97;79.23
37904;BME280;23738;50.422;18.758;2023-07-13T06:11:58;98117.48;;;24.01;79.14
37904;BME280;23738;50.422;18.758;2023-07-13T06:14:28;98115.03;;;24.04;78.82
37904;BME280;23738;50.422;18.758;2023-07-13T06:16:57;98116.11;;;24.04;78.63
37904;BME280;23738;50.422;18.758;2023-07-13T06:19:26;98112.71;;;24.08;78.38
37904;BME280;23738;50.422;18.758;2023-07-13T06:21:55;98114.94;;;24.17;78.16
37904;BME280;23738;50.422;18.758;2023-07-13T06:24:26;98118.69;;;24.25;78.24
37904;BME280;23738;50.422;18.758;2023-07-13T06:26:56;98123.58;;;24.35;78.18
37904;BME280;23738;50.422;18.758;2023-07-13T06:29:25;98126.46;;;24.40;77.95
37904;BME280;23738;50.422;18.758;2023-07-13T06:31:54;98130.14;;;24.39;77.56
37904;BME280;23738;50.422;18.758;2023-07-13T06:34:24;98136.00;;;24.38;77.80
37904;BME280;23738;50.422;18.758;2023-07-13T06:36:53;98136.64;;;24.38;77.57
37904;BME280;23738;50.422;18.758;2023-07-13T06:39:22;98140.85;;;24.38;77.30
37904;BME280;23738;50.422;18.758;2023-07-13T06:41:52;98144.56;;;24.35;77.27
37904;BME280;23738;50.422;18.758;2023-07-13T06:44:21;98145.32;;;24.35;77.13
37904;BME280;23738;50.422;18.758;2023-07-13T06:46:50;98150.94;;;24.33;77.23
37904;BME280;23738;50.422;18.758;2023-07-13T06:49:19;98156.52;;;24.32;77.07
37904;BME280;23738;50.422;18.758;2023-07-13T06:51:49;98158.48;;;24.28;76.11
37904;BME280;23738;50.422;18.758;2023-07-13T06:54:18;98155.87;;;24.18;75.72
37904;BME280;23738;50.422;18.758;2023-07-13T06:56:47;98163.17;;;24.14;76.06
37904;BME280;23738;50.422;18.758;2023-07-13T06:59:17;98165.98;;;24.07;76.01
37904;BME280;23738;50.422;18.758;2023-07-13T07:01:46;98171.89;;;23.99;76.10
37904;BME280;23738;50.422;18.758;2023-07-13T07:04:15;98169.39;;;23.94;75.90
37904;BME280;23738;50.422;18.758;2023-07-13T07:06:45;98168.89;;;23.88;75.77
37904;BME280;23738;50.422;18.758;2023-07-13T07:09:14;98173.95;;;23.81;75.82
37904;BME280;23738;50.422;18.758;2023-07-13T07:11:44;98178.20;;;23.75;75.90
37904;BME280;23738;50.422;18.758;2023-07-13T07:14:13;98186.56;;;23.72;76.04
37904;BME280;23738;50.422;18.758;2023-07-13T07:16:43;98197.66;;;23.64;75.73
37904;BME280;23738;50.422;18.758;2023-07-13T07:19:13;98206.42;;;23.55;75.70
37904;BME280;23738;50.422;18.758;2023-07-13T07:21:42;98212.13;;;23.47;75.62
37904;BME280;23738;50.422;18.758;2023-07-13T07:24:11;98219.55;;;23.36;75.34
37904;BME280;23738;50.422;18.758;2023-07-13T07:26:41;98220.61;;;23.24;75.54
37904;BME280;23738;50.422;18.758;2023-07-13T07:29:11;98217.98;;;23.19;75.62
37904;BME280;23738;50.422;18.758;2023-07-13T07:31:40;98219.58;;;23.15;75.67
37904;BME280;23738;50.422;18.758;2023-07-13T07:34:09;98220.40;;;23.10;75.73
37904;BME280;23738;50.422;18.758;2023-07-13T07:36:39;98219.79;;;23.03;75.71
37904;BME280;23738;50.422;18.758;2023-07-13T07:39:08;98217.02;;;23.00;75.83
37904;BME280;23738;50.422;18.758;2023-07-13T07:41:38;98222.00;;;22.99;76.02
37904;BME280;23738;50.422;18.758;2023-07-13T07:44:07;98220.79;;;22.98;76.09
37904;BME280;23738;50.422;18.758;2023-07-13T07:46:38;98216.17;;;22.99;76.19
37904;BME280;23738;50.422;18.758;2023-07-13T07:49:09;98212.90;;;23.02;76.31
37904;BME280;23738;50.422;18.758;2023-07-13T07:51:38;98212.92;;;23.06;76.28
37904;BME280;23738;50.422;18.758;2023-07-13T07:54:08;98213.80;;;23.08;76.29
37904;BME280;23738;50.422;18.758;2023-07-13T07:56:38;98219.49;;;23.09;76.17
37904;BME280;23738;50.422;18.758;2023-07-13T07:59:16;98217.98;;;23.10;76.30
37904;BME280;23738;50.422;18.758;2023-07-13T08:01:45;98210.76;;;23.10;76.42
37904;BME280;23738;50.422;18.758;2023-07-13T08:04:16;98206.40;;;23.15;76.49
37904;BME280;23738;50.422;18.758;2023-07-13T08:06:45;98200.65;;;23.17;76.62
37904;BME280;23738;50.422;18.758;2023-07-13T08:09:14;98196.52;;;23.20;76.61
37904;BME280;23738;50.422;18.758;2023-07-13T08:11:44;98189.16;;;23.26;76.76
37904;BME280;23738;50.422;18.758;2023-07-13T08:14:13;98183.27;;;23.35;76.98
37904;BME280;23738;50.422;18.758;2023-07-13T08:16:43;98178.54;;;23.48;77.42
37904;BME280;23738;50.422;18.758;2023-07-13T08:19:12;98178.00;;;23.60;77.22
37904;BME280;23738;50.422;18.758;2023-07-13T08:21:42;98178.65;;;23.68;77.25
37904;BME280;23738;50.422;18.758;2023-07-13T08:24:12;98185.16;;;23.64;76.62
37904;BME280;23738;50.422;18.758;2023-07-13T08:26:41;98193.37;;;23.52;76.50
37904;BME280;23738;50.422;18.758;2023-07-13T08:29:11;98195.20;;;23.48;76.39
37904;BME280;23738;50.422;18.758;2023-07-13T08:31:40;98194.06;;;23.52;76.63
37904;BME280;23738;50.422;18.758;2023-07-13T08:34:10;98192.55;;;23.60;76.75
37904;BME280;23738;50.422;18.758;2023-07-13T08:36:39;98196.02;;;23.67;76.24
37904;BME280;23738;50.422;18.758;2023-07-13T08:39:08;98205.59;;;23.64;76.11
37904;BME280;23738;50.422;18.758;2023-07-13T08:41:38;98216.07;;;23.56;75.62
37904;BME280;23738;50.422;18.758;2023-07-13T08:44:18;98223.00;;;23.40;75.45
37904;BME280;23738;50.422;18.758;2023-07-13T08:46:51;98228.78;;;23.25;75.47
37904;BME280;23738;50.422;18.758;2023-07-13T08:49:23;98237.19;;;23.16;75.16
37904;BME280;23738;50.422;18.758;2023-07-13T08:51:57;98242.31;;;23.03;74.96
37904;BME280;23738;50.422;18.758;2023-07-13T08:54:32;98252.31;;;22.90;75.01
37904;BME280;23738;50.422;18.758;2023-07-13T08:57:12;98254.31;;;22.79;74.56
37904;BME280;23738;50.422;18.758;2023-07-13T08:59:43;98260.09;;;22.69;74.56
37904;BME280;23738;50.422;18.758;2023-07-13T09:02:24;98262.63;;;22.62;74.64
37904;BME280;23738;50.422;18.758;2023-07-13T09:04:59;98263.90;;;22.59;74.35
37904;BME280;23738;50.422;18.758;2023-07-13T09:07:42;98270.50;;;22.49;73.99
37904;BME280;23738;50.422;18.758;2023-07-13T09:10:19;98276.38;;;22.36;73.73
37904;BME280;23738;50.422;18.758;2023-07-13T09:13:02;98281.45;;;22.25;73.66
37904;BME280;23738;50.422;18.758;2023-07-13T09:15:37;98285.52;;;22.15;73.33
37904;BME280;23738;50.422;18.758;2023-07-13T09:18:13;98285.42;;;22.06;73.44
37904;BME280;23738;50.422;18.758;2023-07-13T09:20:48;98288.97;;;21.94;72.76
37904;BME280;23738;50.422;18.758;2023-07-13T09:23:21;98296.56;;;21.83;72.84
37904;BME280;23738;50.422;18.758;2023-07-13T09:25:54;98303.89;;;21.71;72.93
37904;BME280;23738;50.422;18.758;2023-07-13T09:28:27;98310.81;;;21.59;72.72
37904;BME280;23738;50.422;18.758;2023-07-13T09:31:03;98320.51;;;21.40;72.68
37904;BME280;23738;50.422;18.758;2023-07-13T09:33:34;98330.73;;;21.18;72.62
37904;BME280;23738;50.422;18.758;2023-07-13T09:36:19;98341.98;;;20.99;72.78
37904;BME280;23738;50.422;18.758;2023-07-13T09:38:52;98356.05;;;20.83;73.05
37904;BME280;23738;50.422;18.758;2023-07-13T09:41:34;98368.63;;;20.66;73.17
37904;BME280;23738;50.422;18.758;2023-07-13T09:44:13;98377.04;;;20.45;73.34
37904;BME280;23738;50.422;18.758;2023-07-13T09:46:46;98379.61;;;20.29;73.35
37904;BME280;23738;50.422;18.758;2023-07-13T09:49:16;98383.83;;;20.17;73.80
37904;BME280;23738;50.422;18.758;2023-07-13T09:51:45;98382.89;;;20.06;73.75
37904;BME280;23738;50.422;18.758;2023-07-13T09:54:21;98372.44;;;19.93;73.89
37904;BME280;23738;50.422;18.758;2023-07-13T09:56:55;98368.29;;;19.86;74.41
37904;BME280;23738;50.422;18.758;2023-07-13T09:59:28;98356.59;;;19.82;74.44
37904;BME280;23738;50.422;18.758;2023-07-13T10:01:58;98347.58;;;19.79;74.63
37904;BME280;23738;50.422;18.758;2023-07-13T10:04:32;98348.30;;;19.73;74.66
37904;BME280;23738;50.422;18.758;2023-07-13T10:07:11;98351.98;;;19.65;75.13
37904;BME280;23738;50.422;18.758;2023-07-13T10:09:42;98351.65;;;19.52;74.97
37904;BME280;23738;50.422;18.758;2023-07-13T10:12:16;98348.73;;;19.43;75.29
37904;BME280;23738;50.422;18.758;2023-07-13T10:14:46;98350.06;;;19.38;75.38
37904;BME280;23738;50.422;18.758;2023-07-13T10:17:17;98348.09;;;19.39;75.69
37904;BME280;23738;50.422;18.758;2023-07-13T10:19:49;98336.24;;;19.38;75.76
37904;BME280;23738;50.422;18.758;2023-07-13T10:22:25;98334.58;;;19.37;76.00
37904;BME280;23738;50.422;18.758;2023-07-13T10:24:57;98328.17;;;19.34;76.09
37904;BME280;23738;50.422;18.758;2023-07-13T10:27:31;98330.83;;;19.29;76.22
37904;BME280;23738;50.422;18.758;2023-07-13T10:30:09;98319.23;;;19.26;76.21
37904;BME280;23738;50.422;18.758;2023-07-13T10:32:41;98319.82;;;19.24;76.53
37904;BME280;23738;50.422;18.758;2023-07-13T10:35:14;98308.90;;;19.22;76.62
37904;BME280;23738;50.422;18.758;2023-07-13T10:37:49;98311.20;;;19.22;76.81
37904;BME280;23738;50.422;18.758;2023-07-13T10:40:25;98319.77;;;19.22;76.95
37904;BME280;23738;50.422;18.758;2023-07-13T10:43:00;98326.51;;;19.21;76.88
37904;BME280;23738;50.422;18.758;2023-07-13T10:45:34;98332.73;;;19.22;77.13
37904;BME280;23738;50.422;18.758;2023-07-13T10:48:06;98324.86;;;19.25;77.22
37904;BME280;23738;50.422;18.758;2023-07-13T10:50:42;98321.85;;;19.31;77.50
37904;BME280;23738;50.422;18.758;2023-07-13T10:53:29;98320.95;;;19.34;77.62
37904;BME280;23738;50.422;18.758;2023-07-13T10:56:02;98330.79;;;19.31;77.74
37904;BME280;23738;50.422;18.758;2023-07-13T10:58:38;98331.58;;;19.28;77.92
37904;BME280;23738;50.422;18.758;2023-07-13T11:01:14;98333.51;;;19.29;78.01
37904;BME280;23738;50.422;18.758;2023-07-13T11:03:48;98330.48;;;19.35;78.18
37904;BME280;23738;50.422;18.758;2023-07-13T11:06:33;98322.21;;;19.42;78.25
37904;BME280;23738;50.422;18.758;2023-07-13T11:09:35;98320.52;;;19.51;78.58
37904;BME280;23738;50.422;18.758;2023-07-13T11:12:08;98317.61;;;19.60;78.81
37904;BME280;23738;50.422;18.758;2023-07-13T11:15:03;98323.63;;;19.66;78.82
37904;BME280;23738;50.422;18.758;2023-07-13T11:17:49;98327.41;;;19.73;78.83
37904;BME280;23738;50.422;18.758;2023-07-13T11:20:35;98336.65;;;19.83;79.05
37904;BME280;23738;50.422;18.758;2023-07-13T11:23:30;98342.74;;;19.96;79.27
37904;BME280;23738;50.422;18.758;2023-07-13T11:25:59;98352.21;;;20.10;79.36
37904;BME280;23738;50.422;18.758;2023-07-13T11:28:33;98353.09;;;20.18;79.27
37904;BME280;23738;50.422;18.758;2023-07-13T11:31:19;98357.52;;;20.28;79.65
37904;BME280;23738;50.422;18.758;2023-07-13T11:33:56;98358.84;;;20.37;79.63
37904;BME280;23738;50.422;18.758;2023-07-13T11:36:32;98363.58;;;20.48;79.68
37904;BME280;23738;50.422;18.758;2023-07-13T11:39:16;98365.83;;;20.54;79.62
37904;BME280;23738;50.422;18.758;2023-07-13T11:41:48;98368.35;;;20.59;79.47
37904;BME280;23738;50.422;18.758;2023-07-13T11:44:20;98370.50;;;20.66;79.68
37904;BME280;23738;50.422;18.758;2023-07-13T11:46:53;98369.00;;;20.72;79.75
37904;BME280;23738;50.422;18.758;2023-07-13T11:49:24;98369.80;;;20.78;79.82
37904;BME280;23738;50.422;18.758;2023-07-13T11:51:55;98381.02;;;20.83;79.85
37904;BME280;23738;50.422;18.758;2023-07-13T11:54:31;98385.05;;;20.89;79.87
37904;BME280;23738;50.422;18.758;2023-07-13T11:57:03;98380.48;;;20.92;79.75
37904;BME280;23738;50.422;18.758;2023-07-13T11:59:40;98375.65;;;20.95;79.67
37904;BME280;23738;50.422;18.758;2023-07-13T12:02:16;98379.79;;;20.97;79.70
37904;BME280;23738;50.422;18.758;2023-07-13T12:04:46;98382.84;;;20.99;79.76
37904;BME280;23738;50.422;18.758;2023-07-13T12:07:18;98384.77;;;21.02;79.67
37904;BME280;23738;50.422;18.758;2023-07-13T12:09:48;98389.59;;;20.98;79.56
37904;BME280;23738;50.422;18.758;2023-07-13T12:12:21;98393.69;;;20.91;79.33
37904;BME280;23738;50.422;18.758;2023-07-13T12:14:54;98398.36;;;20.83;79.46
37904;BME280;23738;50.422;18.758;2023-07-13T12:17:24;98394.73;;;20.82;79.56
37904;BME280;23738;50.422;18.758;2023-07-13T12:19:54;98394.08;;;20.83;79.63
37904;BME280;23738;50.422;18.758;2023-07-13T12:22:24;98393.80;;;20.86;79.80
37904;BME280;23738;50.422;18.758;2023-07-13T12:24:54;98397.14;;;20.93;79.79
37904;BME280;23738;50.422;18.758;2023-07-13T12:27:27;98400.89;;;20.94;79.77
37904;BME280;23738;50.422;18.758;2023-07-13T12:30:01;98404.16;;;20.92;79.62
37904;BME280;23738;50.422;18.758;2023-07-13T12:32:33;98401.70;;;20.90;79.55
37904;BME280;23738;50.422;18.758;2023-07-13T12:35:15;98397.13;;;20.95;79.92
37904;BME280;23738;50.422;18.758;2023-07-13T12:37:46;98399.70;;;21.02;79.99
37904;BME280;23738;50.422;18.758;2023-07-13T12:40:17;98399.96;;;21.10;79.94
37904;BME280;23738;50.422;18.758;2023-07-13T12:42:48;98398.59;;;21.20;80.18
37904;BME280;23738;50.422;18.758;2023-07-13T12:45:22;98396.52;;;21.24;80.05
37904;BME280;23738;50.422;18.758;2023-07-13T12:47:55;98392.83;;;21.24;79.88
37904;BME280;23738;50.422;18.758;2023-07-13T12:50:39;98390.20;;;21.22;79.98
37904;BME280;23738;50.422;18.758;2023-07-13T12:53:14;98387.34;;;21.48;80.46
37904;BME280;23738;50.422;18.758;2023-07-13T12:55:46;98382.41;;;21.64;80.14
37904;BME280;23738;50.422;18.758;2023-07-13T12:58:21;98380.27;;;21.72;80.22
37904;BME280;23738;50.422;18.758;2023-07-13T13:00:55;98380.31;;;21.90;80.46
37904;BME280;23738;50.422;18.758;2023-07-13T13:03:31;98378.92;;;22.05;80.25
37904;BME280;23738;50.422;18.758;2023-07-13T13:06:04;98386.29;;;22.05;79.64
37904;BME280;23738;50.422;18.758;2023-07-13T13:08:35;98388.73;;;21.99;79.58
37904;BME280;23738;50.422;18.758;2023-07-13T13:11:05;98391.92;;;21.90;79.47
37904;BME280;23738;50.422;18.758;2023-07-13T13:13:34;98391.88;;;21.87;79.42